Time;durP1;ratioP1;P1;durP2;ratioP2;P2;SDS_P1;SDS_P2;PMS_P1;PMS_P2;Temp;Humidity;BMP_temperature;BMP_pressure;BME280_temperature;BME280_humidity;BME280_pressure;Samples;Min_cycle;Max_cycle;Signal;HPM_P1;HPM_P2
2022/11/28 00:01:36;;;;;;;;;;;9.90;99.90;;;;;;6245280;22;19903;-86
2022/11/28 00:04:02;;;;;;;;;;;10.00;99.90;;;;;;6271835;22;19903;-87
2022/11/28 00:06:28;;;;;;;;;;;10.00;99.90;;;;;;6272183;22;19923;-86
2022/11/28 00:08:56;;;;;;;;;;;9.90;99.90;;;;;;6272261;22;19907;-86
2022/11/28 00:11:21;;;;;;;;;;;10.10;99.90;;;;;;6271822;22;19903;-87
2022/11/28 00:13:47;;;;;;;;;;;9.90;99.90;;;;;;6245321;22;19974;-86
2022/11/28 00:16:14;;;;;;;;;;;9.90;99.90;;;;;;6272003;22;19935;-86
2022/11/28 00:18:40;;;;;;;;;;;9.80;99.90;;;;;;6272301;22;19910;-86
2022/11/28 00:21:10;;;;;;;;;;;9.90;99.90;;;;;;6272895;22;19985;-86
2022/11/28 00:23:36;;;;;;;;;;;9.80;99.90;;;;;;6245794;22;19904;-86
2022/11/28 00:26:06;;;;;;;;;;;9.80;99.90;;;;;;6271560;22;19910;-86
2022/11/28 00:28:32;;;;;;;;;;;9.80;99.90;;;;;;6272085;22;19918;-86
2022/11/28 00:30:57;;;;;;;;;;;9.80;99.90;;;;;;6272180;22;20366;-86
2022/11/28 00:33:23;;;;;;;;;;;9.70;99.90;;;;;;6271931;22;19907;-86
2022/11/28 00:35:48;;;;;;;;;;;9.80;99.90;;;;;;6244844;22;20327;-86
2022/11/28 00:38:14;;;;;;;;;;;9.70;99.90;;;;;;6271701;22;19911;-86
2022/11/28 00:40:39;;;;;;;;;;;9.70;99.90;;;;;;6271880;22;20330;-87
2022/11/28 00:43:05;;;;;;;;;;;9.70;99.90;;;;;;6272854;22;19909;-87
2022/11/28 00:45:30;;;;;;;;;;;9.70;99.90;;;;;;6245015;22;19926;-87
2022/11/28 00:47:56;;;;;;;;;;;9.70;99.90;;;;;;6244637;22;19912;-86
2022/11/28 00:50:21;;;;;;;;;;;9.80;99.90;;;;;;6271557;22;19904;-86
2022/11/28 00:52:47;;;;;;;;;;;9.70;99.90;;;;;;6271788;22;19903;-87
2022/11/28 00:55:12;;;;;;;;;;;9.60;99.90;;;;;;6244175;22;19926;-86
2022/11/28 00:57:38;;;;;;;;;;;9.60;99.90;;;;;;6273004;22;19914;-86
2022/11/28 01:00:05;;;;;;;;;;;9.60;99.90;;;;;;6271553;22;19904;-86
2022/11/28 01:02:31;;;;;;;;;;;9.60;99.90;;;;;;6272249;22;19903;-86
2022/11/28 01:04:56;;;;;;;;;;;9.60;99.90;;;;;;6244578;22;19950;-86
2022/11/28 01:07:22;;;;;;;;;;;9.60;99.90;;;;;;6271183;22;19942;-86
2022/11/28 01:09:47;;;;;;;;;;;9.60;99.90;;;;;;6271546;22;19903;-86
2022/11/28 01:12:13;;;;;;;;;;;9.60;99.90;;;;;;6271458;22;19965;-87
2022/11/28 01:14:38;;;;;;;;;;;9.40;99.90;;;;;;6272849;22;20393;-86
2022/11/28 01:17:04;;;;;;;;;;;9.30;99.90;;;;;;6271083;22;19935;-86
2022/11/28 01:19:29;;;;;;;;;;;9.40;99.90;;;;;;6272071;22;20131;-86
2022/11/28 01:21:55;;;;;;;;;;;9.20;99.90;;;;;;6244314;22;19911;-86
2022/11/28 01:24:20;;;;;;;;;;;9.20;99.90;;;;;;6271208;22;19903;-87
2022/11/28 01:26:46;;;;;;;;;;;9.30;99.90;;;;;;6271546;22;19907;-86
2022/11/28 01:29:11;;;;;;;;;;;9.10;99.90;;;;;;6244094;22;19904;-87
2022/11/28 01:31:37;;;;;;;;;;;9.10;99.90;;;;;;6272585;22;19904;-86
2022/11/28 01:34:03;;;;;;;;;;;9.10;99.90;;;;;;6271090;22;19903;-85
2022/11/28 01:36:30;;;;;;;;;;;9.10;99.90;;;;;;6271393;22;19907;-86
2022/11/28 01:38:55;;;;;;;;;;;9.10;99.90;;;;;;6271095;22;19907;-86
2022/11/28 01:41:23;;;;;;;;;;;9.20;99.90;;;;;;6243997;22;19907;-86
2022/11/28 01:43:57;;;;;;;;;;;9.10;99.90;;;;;;6271785;22;19907;-86
2022/11/28 01:46:23;;;;;;;;;;;9.00;99.90;;;;;;6270904;22;19903;-86
2022/11/28 01:48:49;;;;;;;;;;;8.90;99.90;;;;;;6271373;22;19918;-86
2022/11/28 01:51:15;;;;;;;;;;;9.00;99.90;;;;;;6270861;22;20216;-87
2022/11/28 01:53:41;;;;;;;;;;;8.80;99.90;;;;;;6272392;22;19956;-86
2022/11/28 01:56:09;;;;;;;;;;;8.80;99.90;;;;;;6244915;22;20248;-86
2022/11/28 01:58:38;;;;;;;;;;;8.70;99.90;;;;;;6271351;22;19953;-87
2022/11/28 02:01:04;;;;;;;;;;;8.60;99.90;;;;;;6270772;22;19903;-86
2022/11/28 02:03:33;;;;;;;;;;;8.60;99.90;;;;;;6271265;22;19986;-87
2022/11/28 02:05:59;;;;;;;;;;;8.70;99.90;;;;;;6270777;22;19914;-86
2022/11/28 02:08:24;;;;;;;;;;;8.80;99.90;;;;;;6271351;22;19911;-87
2022/11/28 02:11:02;;;;;;;;;;;8.70;99.90;;;;;;6244038;22;19911;-86
2022/11/28 02:13:46;;;;;;;;;;;8.70;99.90;;;;;;6243759;22;19978;-86
2022/11/28 02:16:14;;;;;;;;;;;8.60;99.90;;;;;;6270963;22;19904;-86
2022/11/28 02:18:58;;;;;;;;;;;8.70;99.90;;;;;;6245021;22;19904;-86
2022/11/28 02:21:39;;;;;;;;;;;8.70;99.90;;;;;;6243966;22;19903;-86
2022/11/28 02:24:31;;;;;;;;;;;8.60;99.90;;;;;;6270641;22;19903;-86
2022/11/28 02:27:06;;;;;;;;;;;8.60;99.90;;;;;;6270492;22;20026;-85
2022/11/28 02:29:39;;;;;;;;;;;8.60;99.90;;;;;;6270747;22;20375;-85
2022/11/28 02:32:21;;;;;;;;;;;8.60;99.90;;;;;;6243584;22;19907;-87
2022/11/28 02:35:05;;;;;;;;;;;8.50;99.90;;;;;;6243873;22;19903;-85
2022/11/28 02:37:45;;;;;;;;;;;8.50;99.90;;;;;;6271130;22;19957;-86
2022/11/28 02:40:21;;;;;;;;;;;8.50;99.90;;;;;;6271557;22;19934;-86
2022/11/28 02:42:50;;;;;;;;;;;8.50;99.90;;;;;;6270910;22;19904;-87
2022/11/28 02:45:33;;;;;;;;;;;8.50;99.90;;;;;;6243237;22;20320;-86
2022/11/28 02:48:02;;;;;;;;;;;8.40;99.90;;;;;;6270688;22;19923;-86
2022/11/28 02:50:31;;;;;;;;;;;8.30;99.90;;;;;;6270922;22;19903;-86
2022/11/28 02:53:03;;;;;;;;;;;8.30;99.90;;;;;;6270856;22;19930;-86
2022/11/28 02:55:29;;;;;;;;;;;8.30;99.90;;;;;;6270897;22;19931;-85
2022/11/28 02:57:55;;;;;;;;;;;8.30;99.90;;;;;;6270678;22;19934;-86
2022/11/28 03:00:21;;;;;;;;;;;8.20;99.90;;;;;;6270618;22;20247;-85
2022/11/28 03:02:49;;;;;;;;;;;8.20;99.90;;;;;;6271347;22;20001;-86
2022/11/28 03:05:25;;;;;;;;;;;8.20;99.90;;;;;;6270512;22;19904;-85
2022/11/28 03:08:15;;;;;;;;;;;8.20;99.90;;;;;;6270458;22;19923;-86
2022/11/28 03:10:41;;;;;;;;;;;8.30;99.90;;;;;;6244555;22;19903;-85
2022/11/28 03:13:20;;;;;;;;;;;8.30;99.90;;;;;;6271042;22;19910;-86
2022/11/28 03:16:21;;;;;;;;;;;8.30;99.90;;;;;;6270889;22;19911;-85
2022/11/28 03:18:47;;;;;;;;;;;8.20;99.90;;;;;;6118134;23;19905;-85
2022/11/28 03:21:18;;;;;;;;;;;8.20;99.90;;;;;;6239457;22;20295;-85
2022/11/28 03:23:44;;;;;;;;;;;8.20;99.90;;;;;;6272044;22;19959;-86
2022/11/28 03:26:17;;;;;;;;;;;8.20;99.90;;;;;;6271444;22;19983;-85
2022/11/28 03:28:50;;;;;;;;;;;8.20;99.90;;;;;;6271901;22;19942;-85
2022/11/28 03:31:18;;;;;;;;;;;8.20;99.90;;;;;;6243168;22;20346;-86
2022/11/28 03:33:47;;;;;;;;;;;8.30;99.90;;;;;;6272085;22;20350;-86
2022/11/28 03:36:15;;;;;;;;;;;7.90;99.90;;;;;;6271724;22;20327;-86
2022/11/28 03:38:43;;;;;;;;;;;8.20;99.90;;;;;;6271769;22;19903;-86
2022/11/28 03:41:13;;;;;;;;;;;8.20;99.90;;;;;;6271677;22;19903;-85
2022/11/28 03:43:41;;;;;;;;;;;8.80;99.90;;;;;;6273212;22;19930;-85
2022/11/28 03:46:09;;;;;;;;;;;8.10;99.90;;;;;;6272114;22;19907;-86
2022/11/28 03:48:37;;;;;;;;;;;8.80;99.90;;;;;;6245332;22;19990;-86
2022/11/28 03:51:09;;;;;;;;;;;8.10;99.90;;;;;;6272335;22;19910;-86
2022/11/28 03:53:40;;;;;;;;;;;8.10;99.90;;;;;;6272165;22;19982;-85
2022/11/28 03:56:35;;;;;;;;;;;8.20;99.90;;;;;;6272191;22;20411;-86
2022/11/28 03:59:02;;;;;;;;;;;8.20;99.90;;;;;;6239580;22;19978;-86
2022/11/28 04:01:28;;;;;;;;;;;8.30;99.90;;;;;;6272555;22;19946;-87
2022/11/28 04:04:09;;;;;;;;;;;8.20;99.90;;;;;;6245207;22;19903;-87
2022/11/28 04:06:50;;;;;;;;;;;8.20;99.90;;;;;;6272145;22;19911;-86
2022/11/28 04:09:38;;;;;;;;;;;8.20;99.90;;;;;;6245752;22;19914;-86
2022/11/28 04:12:27;;;;;;;;;;;8.10;99.90;;;;;;6251621;22;19903;-86
2022/11/28 04:14:54;;;;;;;;;;;8.10;99.90;;;;;;6244697;22;20320;-85
2022/11/28 04:17:25;;;;;;;;;;;8.20;99.90;;;;;;6271609;22;19909;-86
2022/11/28 04:19:53;;;;;;;;;;;8.10;99.90;;;;;;6272371;22;19903;-86
2022/11/28 04:22:28;;;;;;;;;;;8.10;99.90;;;;;;6244621;22;19918;-85
2022/11/28 04:24:56;;;;;;;;;;;8.10;99.90;;;;;;6272298;22;19903;-86
2022/11/28 04:27:24;;;;;;;;;;;8.60;99.90;;;;;;6271675;22;19907;-86
2022/11/28 04:29:52;;;;;;;;;;;8.30;99.90;;;;;;6271844;22;19910;-85
2022/11/28 04:32:19;;;;;;;;;;;8.10;99.90;;;;;;6271821;22;20479;-86
2022/11/28 04:34:48;;;;;;;;;;;8.10;99.90;;;;;;6273394;22;19903;-86
2022/11/28 04:37:13;;;;;;;;;;;8.10;99.90;;;;;;6272645;22;20316;-86
2022/11/28 04:39:41;;;;;;;;;;;8.00;99.90;;;;;;6245092;22;19934;-86
2022/11/28 04:42:11;;;;;;;;;;;8.70;99.90;;;;;;6244993;22;19903;-87
2022/11/28 04:44:40;;;;;;;;;;;7.90;99.90;;;;;;6272685;22;19903;-87
2022/11/28 04:47:06;;;;;;;;;;;8.00;99.90;;;;;;6272424;22;19919;-87
2022/11/28 04:49:31;;;;;;;;;;;7.80;99.90;;;;;;6271950;22;20255;-87
2022/11/28 04:52:07;;;;;;;;;;;7.80;99.90;;;;;;6271468;22;19910;-87
2022/11/28 04:54:39;;;;;;;;;;;7.70;99.90;;;;;;6274050;22;19903;-92
2022/11/28 04:57:13;;;;;;;;;;;7.70;99.90;;;;;;6247184;22;19904;-90
2022/11/28 04:59:41;;;;;;;;;;;7.80;99.90;;;;;;6246583;22;20379;-90
2022/11/28 05:02:13;;;;;;;;;;;7.80;99.90;;;;;;6247442;22;19903;-91
2022/11/28 05:04:44;;;;;;;;;;;7.80;99.90;;;;;;6274458;22;20091;-91
2022/11/28 05:07:09;;;;;;;;;;;7.80;99.90;;;;;;6245560;22;19927;-89
2022/11/28 05:09:35;;;;;;;;;;;7.80;99.90;;;;;;6272471;22;19904;-91
2022/11/28 05:12:01;;;;;;;;;;;7.80;99.90;;;;;;6272674;22;19903;-89
2022/11/28 05:14:26;;;;;;;;;;;7.80;99.90;;;;;;6272878;22;19910;-89
2022/11/28 05:16:52;;;;;;;;;;;7.70;99.90;;;;;;6272420;22;19903;-89
2022/11/28 05:19:17;;;;;;;;;;;7.60;99.90;;;;;;6273273;22;20221;-88
2022/11/28 05:21:43;;;;;;;;;;;7.70;99.90;;;;;;6271007;22;19990;-88
2022/11/28 05:24:09;;;;;;;;;;;7.60;99.90;;;;;;6244590;22;20297;-87
2022/11/28 05:26:35;;;;;;;;;;;7.60;99.90;;;;;;6266328;22;19907;-88
2022/11/28 05:29:01;;;;;;;;;;;7.60;99.90;;;;;;6243581;22;19939;-88
2022/11/28 05:31:26;;;;;;;;;;;7.60;99.90;;;;;;6243886;22;19903;-89
2022/11/28 05:33:53;;;;;;;;;;;7.60;99.90;;;;;;6240658;22;19908;-91
2022/11/28 05:36:18;;;;;;;;;;;7.60;99.90;;;;;;6273016;22;19903;-92
2022/11/28 05:38:44;;;;;;;;;;;7.50;99.90;;;;;;6244634;22;20217;-90
2022/11/28 05:41:17;;;;;;;;;;;7.50;99.90;;;;;;6244379;22;20347;-90
2022/11/28 05:43:43;;;;;;;;;;;7.60;99.90;;;;;;6271057;22;19911;-90
2022/11/28 05:46:11;;;;;;;;;;;7.60;99.90;;;;;;6271333;22;19955;-93
2022/11/28 05:48:36;;;;;;;;;;;7.50;99.90;;;;;;6271609;22;19943;-89
2022/11/28 05:51:05;;;;;;;;;;;7.50;99.90;;;;;;6271830;22;19903;-89
2022/11/28 05:53:31;;;;;;;;;;;7.60;99.90;;;;;;6272247;22;19929;-91
2022/11/28 05:55:56;;;;;;;;;;;7.60;99.90;;;;;;6245704;22;19957;-89
2022/11/28 05:58:22;;;;;;;;;;;7.60;99.90;;;;;;6245821;22;19957;-91
2022/11/28 06:00:47;;;;;;;;;;;7.70;99.90;;;;;;6273216;22;19904;-91
2022/11/28 06:03:13;;;;;;;;;;;7.70;99.90;;;;;;6245258;22;19903;-91
2022/11/28 06:05:58;;;;;;;;;;;7.80;99.90;;;;;;6272979;22;20299;-92
2022/11/28 06:08:24;;;;;;;;;;;7.80;99.90;;;;;;6245549;22;19915;-92
2022/11/28 06:10:57;;;;;;;;;;;7.80;99.90;;;;;;6246782;22;19903;-92
2022/11/28 06:13:22;;;;;;;;;;;7.90;99.90;;;;;;6272500;22;19903;-91
2022/11/28 06:15:48;;;;;;;;;;;7.90;99.90;;;;;;6273407;22;19910;-91
2022/11/28 06:18:13;;;;;;;;;;;7.90;99.90;;;;;;6246128;22;19961;-89
2022/11/28 06:20:39;;;;;;;;;;;7.90;99.90;;;;;;6273967;22;20331;-93
2022/11/28 06:23:04;;;;;;;;;;;7.90;99.90;;;;;;6273651;22;19986;-91
2022/11/28 06:25:30;;;;;;;;;;;7.90;99.90;;;;;;6272379;22;19903;-89
2022/11/28 06:27:55;;;;;;;;;;;7.80;99.90;;;;;;6245124;22;19918;-91
2022/11/28 06:30:21;;;;;;;;;;;7.80;99.90;;;;;;6246283;22;20347;-91
2022/11/28 06:32:46;;;;;;;;;;;9.20;99.90;;;;;;6272694;22;19910;-91
2022/11/28 06:35:12;;;;;;;;;;;7.80;99.90;;;;;;6245563;22;19913;-93
2022/11/28 06:37:38;;;;;;;;;;;7.70;99.90;;;;;;6245470;22;19910;-91
2022/11/28 06:40:04;;;;;;;;;;;7.80;99.90;;;;;;6272769;22;19904;-93
2022/11/28 06:42:29;;;;;;;;;;;7.80;99.90;;;;;;6245742;22;20275;-91
2022/11/28 06:44:55;;;;;;;;;;;7.80;99.90;;;;;;6272535;22;19911;-89
2022/11/28 06:47:20;;;;;;;;;;;7.90;99.90;;;;;;6246393;22;19908;-92
2022/11/28 06:49:47;;;;;;;;;;;7.80;99.90;;;;;;6245781;22;19948;-93
2022/11/28 06:52:12;;;;;;;;;;;7.80;99.90;;;;;;6245996;22;19903;-95
2022/11/28 06:54:38;;;;;;;;;;;7.80;99.90;;;;;;6272780;22;20292;-92
2022/11/28 06:57:03;;;;;;;;;;;7.80;99.90;;;;;;6272487;22;20228;-92
2022/11/28 06:59:31;;;;;;;;;;;7.90;99.90;;;;;;6245659;22;20247;-91
2022/11/28 07:02:00;;;;;;;;;;;7.80;99.90;;;;;;6272365;22;19903;-94
2022/11/28 07:04:25;;;;;;;;;;;7.80;99.90;;;;;;6272661;22;19910;-93
2022/11/28 07:06:51;;;;;;;;;;;7.80;99.90;;;;;;6273525;22;19915;-92
2022/11/28 07:09:16;;;;;;;;;;;7.80;99.90;;;;;;6272616;22;19903;-92
2022/11/28 07:11:42;;;;;;;;;;;7.80;99.90;;;;;;6272799;22;20301;-90
2022/11/28 07:14:09;;;;;;;;;;;7.80;99.90;;;;;;6272598;22;20243;-93
2022/11/28 07:16:35;;;;;;;;;;;7.70;99.90;;;;;;6274367;22;20350;-92
2022/11/28 07:19:00;;;;;;;;;;;7.70;99.90;;;;;;6247823;22;19904;-92
2022/11/28 07:21:26;;;;;;;;;;;7.70;99.90;;;;;;6248310;22;19903;-91
2022/11/28 07:23:52;;;;;;;;;;;7.70;99.90;;;;;;6252481;22;20396;-92
2022/11/28 07:26:18;;;;;;;;;;;7.70;99.90;;;;;;6251869;22;19903;-91
2022/11/28 07:28:44;;;;;;;;;;;6.70;99.90;;;;;;6250437;22;19990;-92
2022/11/28 07:31:11;;;;;;;;;;;8.10;99.90;;;;;;6249248;22;19914;-91
2022/11/28 07:33:38;;;;;;;;;;;7.70;99.90;;;;;;6274515;22;20285;-90
2022/11/28 07:36:04;;;;;;;;;;;7.70;99.90;;;;;;6247010;22;20229;-92
2022/11/28 07:38:30;;;;;;;;;;;7.80;99.90;;;;;;6247080;22;19907;-91
2022/11/28 07:41:01;;;;;;;;;;;7.70;99.90;;;;;;6247804;22;19930;-88
2022/11/28 07:43:26;;;;;;;;;;;7.70;99.90;;;;;;6247439;22;20220;-94
2022/11/28 07:45:52;;;;;;;;;;;7.60;99.90;;;;;;6248470;22;19938;-90
2022/11/28 07:48:17;;;;;;;;;;;7.70;99.90;;;;;;6247197;22;20335;-91
2022/11/28 07:50:43;;;;;;;;;;;7.70;99.90;;;;;;6247247;22;20327;-90
2022/11/28 07:53:08;;;;;;;;;;;7.70;99.90;;;;;;6273927;22;20356;-89
2022/11/28 07:55:35;;;;;;;;;;;7.60;99.90;;;;;;6246864;22;19990;-92
2022/11/28 07:58:01;;;;;;;;;;;7.70;99.90;;;;;;6274121;22;20271;-91
2022/11/28 08:00:27;;;;;;;;;;;7.70;99.90;;;;;;6274988;22;19903;-87
2022/11/28 08:02:53;;;;;;;;;;;7.70;99.90;;;;;;6275412;22;20405;-92
2022/11/28 08:05:18;;;;;;;;;;;7.80;99.90;;;;;;6274102;22;19903;-92
2022/11/28 08:07:44;;;;;;;;;;;7.70;99.90;;;;;;6273535;22;19923;-90
2022/11/28 08:10:09;;;;;;;;;;;7.70;99.90;;;;;;6273803;22;19907;-89
2022/11/28 08:12:35;;;;;;;;;;;7.80;99.90;;;;;;6246462;22;19904;-89
2022/11/28 08:15:00;;;;;;;;;;;7.80;99.90;;;;;;6273675;22;19908;-89
2022/11/28 08:17:26;;;;;;;;;;;7.80;99.90;;;;;;6247549;22;20247;-90
2022/11/28 08:19:51;;;;;;;;;;;7.70;99.90;;;;;;6246373;22;20255;-88
2022/11/28 08:22:17;;;;;;;;;;;7.80;99.90;;;;;;6246151;22;20399;-91
2022/11/28 08:24:42;;;;;;;;;;;7.80;99.90;;;;;;6273282;22;19986;-89
2022/11/28 08:27:08;;;;;;;;;;;7.80;99.90;;;;;;6272620;22;19914;-89
2022/11/28 08:29:33;;;;;;;;;;;7.80;99.90;;;;;;6246414;22;19935;-89
2022/11/28 08:31:59;;;;;;;;;;;7.80;99.90;;;;;;6273400;22;19939;-87
2022/11/28 08:34:25;;;;;;;;;;;7.80;99.90;;;;;;6247197;22;19970;-88
2022/11/28 08:36:50;;;;;;;;;;;7.80;99.90;;;;;;6246166;22;19946;-88
2022/11/28 08:39:16;;;;;;;;;;;7.80;99.90;;;;;;6273158;22;19903;-87
2022/11/28 08:41:41;;;;;;;;;;;7.80;99.90;;;;;;6246153;22;19942;-89
2022/11/28 08:44:07;;;;;;;;;;;7.80;99.90;;;;;;6246084;22;19927;-90
2022/11/28 08:46:32;;;;;;;;;;;7.80;99.90;;;;;;6245735;22;19903;-88
2022/11/28 08:49:00;;;;;;;;;;;7.90;99.90;;;;;;6246719;22;19904;-88
2022/11/28 08:51:25;;;;;;;;;;;7.90;99.90;;;;;;6273747;22;19903;-87
2022/11/28 08:53:51;;;;;;;;;;;8.10;99.90;;;;;;6245518;22;19910;-87
2022/11/28 08:56:17;;;;;;;;;;;8.00;99.90;;;;;;6245409;22;20287;-88
2022/11/28 08:58:43;;;;;;;;;;;8.10;99.90;;;;;;6272741;22;20270;-88
2022/11/28 09:01:26;;;;;;;;;;;8.20;99.90;;;;;;6272809;22;19903;-89
2022/11/28 09:03:53;;;;;;;;;;;8.30;99.90;;;;;;6245510;22;19903;-87
2022/11/28 09:06:19;;;;;;;;;;;8.40;99.90;;;;;;6245194;22;20246;-87
2022/11/28 09:08:45;;;;;;;;;;;8.50;99.90;;;;;;6272493;22;19942;-88
2022/11/28 09:11:12;;;;;;;;;;;8.50;99.90;;;;;;6245687;22;19903;-89
2022/11/28 09:13:38;;;;;;;;;;;8.50;99.90;;;;;;6245903;22;20318;-89
2022/11/28 09:16:04;;;;;;;;;;;8.50;99.90;;;;;;6272758;22;19903;-88
2022/11/28 09:18:30;;;;;;;;;;;8.50;99.90;;;;;;6273896;22;19914;-89
2022/11/28 09:20:58;;;;;;;;;;;8.60;99.90;;;;;;6245762;22;19904;-90
2022/11/28 09:23:24;;;;;;;;;;;8.60;99.90;;;;;;6246379;22;19903;-92
2022/11/28 09:25:49;;;;;;;;;;;8.50;99.90;;;;;;6273168;22;19914;-92
2022/11/28 09:28:15;;;;;;;;;;;8.60;99.90;;;;;;6273157;22;20342;-93
2022/11/28 09:30:40;;;;;;;;;;;8.50;99.90;;;;;;6273176;22;19935;-93
2022/11/28 09:33:06;;;;;;;;;;;8.50;99.90;;;;;;6273036;22;19903;-92
2022/11/28 09:35:32;;;;;;;;;;;8.50;99.90;;;;;;6274031;22;19903;-88
2022/11/28 09:37:58;;;;;;;;;;;8.60;99.90;;;;;;6246414;22;19903;-91
2022/11/28 09:40:36;;;;;;;;;;;8.60;99.90;;;;;;6273196;22;20247;-90
2022/11/28 09:43:03;;;;;;;;;;;8.60;99.90;;;;;;6246897;22;19903;-90
2022/11/28 09:45:30;;;;;;;;;;;8.60;99.90;;;;;;6273956;22;19910;-90
2022/11/28 09:48:09;;;;;;;;;;;8.60;99.90;;;;;;6245385;22;20287;-91
2022/11/28 09:50:37;;;;;;;;;;;8.70;99.90;;;;;;6245459;22;19953;-91
2022/11/28 09:53:18;;;;;;;;;;;8.70;99.90;;;;;;6273776;22;19903;-90
2022/11/28 09:55:46;;;;;;;;;;;8.70;99.90;;;;;;6245639;22;19903;-90
2022/11/28 09:58:18;;;;;;;;;;;8.70;99.90;;;;;;6245949;22;19903;-90
2022/11/28 10:00:46;;;;;;;;;;;8.80;99.90;;;;;;6272801;22;19903;-91
2022/11/28 10:03:15;;;;;;;;;;;8.90;99.90;;;;;;6245800;22;19945;-90
2022/11/28 10:05:43;;;;;;;;;;;8.80;99.90;;;;;;6246366;22;19970;-90
2022/11/28 10:08:21;;;;;;;;;;;8.90;99.90;;;;;;6273446;22;19915;-91
2022/11/28 10:10:56;;;;;;;;;;;9.10;99.90;;;;;;6272824;22;19935;-92
2022/11/28 10:13:40;;;;;;;;;;;9.10;99.90;;;;;;6272610;22;19903;-92
2022/11/28 10:16:31;;;;;;;;;;;9.10;99.90;;;;;;6272802;22;19904;-92
2022/11/28 10:19:02;;;;;;;;;;;9.20;99.90;;;;;;6272566;22;19907;-88
2022/11/28 10:21:37;;;;;;;;;;;9.20;99.90;;;;;;6272499;22;19904;-92
2022/11/28 10:24:10;;;;;;;;;;;9.30;99.90;;;;;;6273271;22;19903;-91
2022/11/28 10:26:37;;;;;;;;;;;9.20;99.90;;;;;;6245099;22;19903;-88
2022/11/28 10:29:24;;;;;;;;;;;9.20;99.90;;;;;;6273498;22;20037;-90
2022/11/28 10:31:54;;;;;;;;;;;9.30;99.90;;;;;;6245197;22;19916;-93
2022/11/28 10:34:19;;;;;;;;;;;9.10;99.90;;;;;;6244997;22;19908;-87
2022/11/28 10:37:04;;;;;;;;;;;9.00;99.90;;;;;;6245004;22;19904;-88
2022/11/28 10:39:30;;;;;;;;;;;8.90;99.90;;;;;;6272240;22;19915;-89
2022/11/28 10:42:12;;;;;;;;;;;8.70;99.90;;;;;;6272065;22;20131;-90
2022/11/28 10:44:57;;;;;;;;;;;8.80;99.90;;;;;;6244870;22;19904;-88
2022/11/28 10:47:26;;;;;;;;;;;8.60;99.90;;;;;;6244820;22;19911;-89
2022/11/28 10:50:00;;;;;;;;;;;8.70;99.90;;;;;;6272243;22;19965;-87
2022/11/28 10:52:34;;;;;;;;;;;8.70;99.90;;;;;;6274024;22;20119;-89
2022/11/28 10:55:02;;;;;;;;;;;8.70;99.90;;;;;;6247212;22;19913;-88
2022/11/28 10:57:46;;;;;;;;;;;8.90;99.90;;;;;;6274239;22;19908;-87
2022/11/28 11:00:19;;;;;;;;;;;8.90;99.90;;;;;;6246869;22;19903;-90
2022/11/28 11:02:51;;;;;;;;;;;8.90;99.90;;;;;;6273942;22;19912;-88
2022/11/28 11:05:19;;;;;;;;;;;8.90;99.90;;;;;;6246827;22;19941;-87
2022/11/28 11:07:47;;;;;;;;;;;9.00;99.90;;;;;;6273752;22;19915;-91
2022/11/28 11:10:22;;;;;;;;;;;9.00;99.90;;;;;;6246975;22;19910;-90
2022/11/28 11:12:49;;;;;;;;;;;9.10;99.90;;;;;;6273929;22;19907;-90
2022/11/28 11:15:16;;;;;;;;;;;9.10;99.90;;;;;;6246899;22;19904;-88
2022/11/28 11:17:42;;;;;;;;;;;;;;;;;;6273689;22;19934;-89
2022/11/28 11:20:24;;;;;;;;;;;9.20;99.90;;;;;;6246800;22;19911;-87
2022/11/28 11:22:54;;;;;;;;;;;9.30;99.90;;;;;;6273995;22;19903;-88
2022/11/28 11:25:20;;;;;;;;;;;9.30;99.90;;;;;;6246794;22;19907;-89
2022/11/28 11:27:47;;;;;;;;;;;9.40;99.90;;;;;;6273714;22;19912;-90
2022/11/28 11:30:31;;;;;;;;;;;9.60;99.90;;;;;;6273783;22;19957;-90
2022/11/28 11:32:58;;;;;;;;;;;9.60;99.90;;;;;;6273873;22;19903;-89
2022/11/28 11:35:27;;;;;;;;;;;9.60;99.90;;;;;;6273980;22;19903;-89
2022/11/28 11:37:53;;;;;;;;;;;9.50;99.90;;;;;;6246288;22;19911;-88
2022/11/28 11:40:19;;;;;;;;;;;9.40;99.90;;;;;;6246549;22;19977;-90
2022/11/28 11:42:54;;;;;;;;;;;9.50;99.90;;;;;;6273662;22;19934;-88
2022/11/28 11:45:27;;;;;;;;;;;9.50;99.90;;;;;;6246308;22;20266;-88
2022/11/28 11:47:53;;;;;;;;;;;9.50;99.90;;;;;;6246391;22;20354;-89
2022/11/28 11:50:21;;;;;;;;;;;9.40;99.90;;;;;;6273571;22;19931;-91
2022/11/28 11:53:06;;;;;;;;;;;9.40;99.90;;;;;;6273449;22;19957;-88
2022/11/28 11:55:36;;;;;;;;;;;9.40;99.90;;;;;;6246365;22;19950;-87
2022/11/28 11:58:03;;;;;;;;;;;9.40;99.90;;;;;;6273407;22;19903;-89
2022/11/28 12:00:35;;;;;;;;;;;9.40;99.90;;;;;;6246397;22;19926;-90
2022/11/28 12:03:09;;;;;;;;;;;9.30;99.90;;;;;;6246350;22;20362;-89
2022/11/28 12:05:52;;;;;;;;;;;9.30;99.90;;;;;;6274436;22;19910;-90
2022/11/28 12:08:38;;;;;;;;;;;9.40;99.90;;;;;;6246102;22;19962;-87
2022/11/28 12:11:21;;;;;;;;;;;9.40;99.90;;;;;;6246863;22;19926;-89
2022/11/28 12:13:48;;;;;;;;;;;9.50;99.90;;;;;;6246255;22;19910;-89
2022/11/28 12:16:26;;;;;;;;;;;9.50;99.90;;;;;;6273157;22;19918;-90
2022/11/28 12:19:01;;;;;;;;;;;9.50;99.90;;;;;;6246409;22;20324;-90
2022/11/28 12:21:32;;;;;;;;;;;9.50;99.90;;;;;;6273470;22;19903;-89
2022/11/28 12:24:24;;;;;;;;;;;9.70;99.90;;;;;;6273167;22;20346;-89
2022/11/28 12:26:52;;;;;;;;;;;9.70;99.90;;;;;;6265730;22;19907;-89
2022/11/28 12:29:17;;;;;;;;;;;9.70;99.90;;;;;;6273195;22;19907;-88
2022/11/28 12:31:50;;;;;;;;;;;9.80;99.90;;;;;;6273043;22;19970;-88
2022/11/28 12:34:24;;;;;;;;;;;9.80;99.90;;;;;;6245873;22;19904;-87
2022/11/28 12:36:56;;;;;;;;;;;9.90;99.90;;;;;;6245817;22;20320;-88
2022/11/28 12:39:44;;;;;;;;;;;9.80;99.90;;;;;;6272839;22;19910;-88
2022/11/28 12:42:13;;;;;;;;;;;9.80;99.90;;;;;;6253640;22;19907;-87
2022/11/28 12:44:47;;;;;;;;;;;9.80;99.90;;;;;;6274022;22;19903;-87
2022/11/28 12:47:31;;;;;;;;;;;9.80;99.90;;;;;;6272824;22;19914;-89
2022/11/28 12:49:57;;;;;;;;;;;9.10;99.90;;;;;;6245806;22;19911;-87
2022/11/28 12:52:31;;;;;;;;;;;9.90;99.90;;;;;;6272984;22;19949;-89
2022/11/28 12:55:16;;;;;;;;;;;9.80;99.90;;;;;;6272815;22;19910;-88
2022/11/28 12:57:46;;;;;;;;;;;9.80;99.90;;;;;;6246491;22;19904;-88
2022/11/28 13:00:14;;;;;;;;;;;9.80;99.90;;;;;;6246513;22;19911;-88
2022/11/28 13:02:43;;;;;;;;;;;9.80;99.90;;;;;;6274033;22;19992;-90
2022/11/28 13:05:14;;;;;;;;;;;9.80;99.90;;;;;;6246991;22;19904;-91
2022/11/28 13:08:06;;;;;;;;;;;10.00;99.90;;;;;;6273662;22;19919;-91
2022/11/28 13:10:44;;;;;;;;;;;10.10;99.90;;;;;;6214923;22;19957;-90
2022/11/28 13:13:14;;;;;;;;;;;10.10;99.90;;;;;;6273738;22;19903;-88
2022/11/28 13:15:50;;;;;;;;;;;10.10;99.90;;;;;;6274077;22;20099;-92
2022/11/28 13:18:24;;;;;;;;;;;10.00;99.90;;;;;;6272906;22;19903;-90
2022/11/28 13:20:50;;;;;;;;;;;9.90;99.90;;;;;;6245563;22;20310;-88
2022/11/28 13:23:41;;;;;;;;;;;9.90;99.90;;;;;;6272910;22;19940;-92
2022/11/28 13:26:12;;;;;;;;;;;9.90;99.90;;;;;;6272971;22;19903;-88
2022/11/28 13:28:47;;;;;;;;;;;9.90;99.90;;;;;;6272731;22;19911;-89
2022/11/28 13:31:22;;;;;;;;;;;9.90;99.90;;;;;;6246475;22;19927;-89
2022/11/28 13:33:52;;;;;;;;;;;9.90;99.90;;;;;;6245815;22;19957;-90
2022/11/28 13:36:23;;;;;;;;;;;9.90;99.90;;;;;;6245417;22;20279;-91
2022/11/28 13:38:59;;;;;;;;;;;10.00;99.90;;;;;;6245638;22;19904;-89
2022/11/28 13:41:33;;;;;;;;;;;10.00;99.90;;;;;;6272408;22;19907;-89
2022/11/28 13:44:04;;;;;;;;;;;10.10;99.90;;;;;;6272348;22;19904;-91
2022/11/28 13:46:32;;;;;;;;;;;10.20;99.90;;;;;;6272645;22;19990;-91
2022/11/28 13:48:59;;;;;;;;;;;10.20;99.90;;;;;;6272342;22;19918;-89
2022/11/28 13:51:33;;;;;;;;;;;10.30;99.90;;;;;;6245182;22;20331;-89
2022/11/28 13:54:34;;;;;;;;;;;10.30;99.90;;;;;;6245121;22;20240;-88
2022/11/28 13:57:19;;;;;;;;;;;10.30;99.90;;;;;;6119654;23;19909;-88
2022/11/28 13:59:51;;;;;;;;;;;10.20;99.90;;;;;;6234991;22;19903;-92
2022/11/28 14:02:23;;;;;;;;;;;10.10;99.90;;;;;;6272280;22;19903;-89
2022/11/28 14:04:49;;;;;;;;;;;10.10;99.90;;;;;;6244853;22;19986;-88
2022/11/28 14:07:24;;;;;;;;;;;10.10;99.90;;;;;;6273506;22;20303;-89
2022/11/28 14:09:58;;;;;;;;;;;10.00;99.90;;;;;;6272204;22;19930;-90
2022/11/28 14:12:43;;;;;;;;;;;10.00;99.90;;;;;;6272217;22;19982;-88
2022/11/28 14:15:26;;;;;;;;;;;10.00;99.90;;;;;;6272068;22;19903;-89
2022/11/28 14:18:06;;;;;;;;;;;9.90;99.90;;;;;;6272871;22;19938;-89
2022/11/28 14:20:55;;;;;;;;;;;9.80;99.90;;;;;;6245469;22;19910;-90
2022/11/28 14:23:27;;;;;;;;;;;9.70;99.90;;;;;;6271884;22;20331;-90
2022/11/28 14:25:53;;;;;;;;;;;9.60;99.90;;;;;;6272378;22;19904;-91
2022/11/28 14:28:22;;;;;;;;;;;9.60;99.90;;;;;;6245002;22;20328;-87
2022/11/28 14:30:48;;;;;;;;;;;9.50;99.90;;;;;;6272443;22;19903;-88
2022/11/28 14:33:25;;;;;;;;;;;9.50;99.90;;;;;;6245991;22;19931;-89
2022/11/28 14:35:51;;;;;;;;;;;9.50;99.90;;;;;;6272283;22;19907;-90
2022/11/28 14:38:28;;;;;;;;;;;9.40;99.90;;;;;;6273445;22;20353;-90
2022/11/28 14:40:54;;;;;;;;;;;9.50;99.90;;;;;;6272135;22;20228;-89
2022/11/28 14:43:23;;;;;;;;;;;9.40;99.90;;;;;;6245111;22;19982;-91
2022/11/28 14:45:50;;;;;;;;;;;9.50;99.90;;;;;;6244990;22;19903;-90